sensor_id;sensor_type;location;lat;lon;timestamp;P1;durP1;ratioP1;P2;durP2;ratioP2
20391;SDS011;10355;53.688;10.078;2022-08-24T00:01:42;3.78;;;1.00;;
20391;SDS011;10355;53.688;10.078;2022-08-24T00:04:25;3.08;;;1.00;;
20391;SDS011;10355;53.688;10.078;2022-08-24T00:07:12;2.00;;;0.90;;
20391;SDS011;10355;53.688;10.078;2022-08-24T00:10:10;4.78;;;0.98;;
20391;SDS011;10355;53.688;10.078;2022-08-24T00:12:52;1.63;;;0.90;;
20391;SDS011;10355;53.688;10.078;2022-08-24T00:15:35;1.80;;;1.00;;
20391;SDS011;10355;53.688;10.078;2022-08-24T00:18:18;1.10;;;1.00;;
20391;SDS011;10355;53.688;10.078;2022-08-24T00:21:02;3.25;;;0.95;;
20391;SDS011;10355;53.688;10.078;2022-08-24T00:23:45;1.38;;;0.98;;
20391;SDS011;10355;53.688;10.078;2022-08-24T00:26:31;4.03;;;1.23;;
20391;SDS011;10355;53.688;10.078;2022-08-24T00:29:14;3.10;;;0.90;;
20391;SDS011;10355;53.688;10.078;2022-08-24T00:31:58;1.67;;;0.90;;
20391;SDS011;10355;53.688;10.078;2022-08-24T00:34:41;3.10;;;1.05;;
20391;SDS011;10355;53.688;10.078;2022-08-24T00:37:39;3.72;;;1.20;;
20391;SDS011;10355;53.688;10.078;2022-08-24T00:40:24;3.20;;;0.90;;
20391;SDS011;10355;53.688;10.078;2022-08-24T00:43:09;4.25;;;0.95;;
20391;SDS011;10355;53.688;10.078;2022-08-24T00:45:55;2.03;;;1.00;;
20391;SDS011;10355;53.688;10.078;2022-08-24T00:48:42;2.60;;;1.25;;
20391;SDS011;10355;53.688;10.078;2022-08-24T00:51:28;3.03;;;1.00;;
20391;SDS011;10355;53.688;10.078;2022-08-24T00:54:12;2.45;;;1.00;;
20391;SDS011;10355;53.688;10.078;2022-08-24T00:56:58;3.65;;;1.10;;
20391;SDS011;10355;53.688;10.078;2022-08-24T00:59:43;1.63;;;0.80;;
20391;SDS011;10355;53.688;10.078;2022-08-24T01:02:28;1.92;;;0.95;;
20391;SDS011;10355;53.688;10.078;2022-08-24T01:05:13;2.33;;;1.00;;
20391;SDS011;10355;53.688;10.078;2022-08-24T01:07:56;2.78;;;0.98;;
20391;SDS011;10355;53.688;10.078;2022-08-24T01:10:40;2.63;;;1.05;;
20391;SDS011;10355;53.688;10.078;2022-08-24T01:13:24;2.85;;;0.88;;
20391;SDS011;10355;53.688;10.078;2022-08-24T01:16:12;1.90;;;1.00;;
20391;SDS011;10355;53.688;10.078;2022-08-24T01:18:56;2.65;;;1.20;;
20391;SDS011;10355;53.688;10.078;2022-08-24T01:21:39;1.98;;;1.08;;
20391;SDS011;10355;53.688;10.078;2022-08-24T01:24:26;2.63;;;1.13;;
20391;SDS011;10355;53.688;10.078;2022-08-24T01:27:09;2.97;;;1.00;;
20391;SDS011;10355;53.688;10.078;2022-08-24T01:29:56;2.05;;;0.90;;
20391;SDS011;10355;53.688;10.078;2022-08-24T01:32:40;3.30;;;0.98;;
20391;SDS011;10355;53.688;10.078;2022-08-24T01:35:23;2.78;;;1.00;;
20391;SDS011;10355;53.688;10.078;2022-08-24T01:38:08;3.70;;;1.02;;
20391;SDS011;10355;53.688;10.078;2022-08-24T01:40:55;1.88;;;0.98;;
20391;SDS011;10355;53.688;10.078;2022-08-24T01:43:39;2.75;;;0.90;;
20391;SDS011;10355;53.688;10.078;2022-08-24T01:46:22;2.17;;;1.10;;
20391;SDS011;10355;53.688;10.078;2022-08-24T01:49:05;2.80;;;1.05;;
20391;SDS011;10355;53.688;10.078;2022-08-24T01:51:47;1.48;;;1.00;;
20391;SDS011;10355;53.688;10.078;2022-08-24T01:54:30;1.98;;;0.98;;
20391;SDS011;10355;53.688;10.078;2022-08-24T01:57:15;2.42;;;1.13;;
20391;SDS011;10355;53.688;10.078;2022-08-24T01:59:58;2.75;;;1.27;;
20391;SDS011;10355;53.688;10.078;2022-08-24T02:02:42;3.08;;;1.08;;
20391;SDS011;10355;53.688;10.078;2022-08-24T02:05:25;1.95;;;1.10;;
20391;SDS011;10355;53.688;10.078;2022-08-24T02:08:09;3.47;;;1.20;;
20391;SDS011;10355;53.688;10.078;2022-08-24T02:10:51;1.88;;;1.20;;
20391;SDS011;10355;53.688;10.078;2022-08-24T02:13:39;3.53;;;1.20;;
20391;SDS011;10355;53.688;10.078;2022-08-24T02:16:23;4.50;;;1.30;;
20391;SDS011;10355;53.688;10.078;2022-08-24T02:19:06;2.90;;;1.10;;
20391;SDS011;10355;53.688;10.078;2022-08-24T02:21:49;2.67;;;1.42;;
20391;SDS011;10355;53.688;10.078;2022-08-24T02:24:32;3.42;;;1.33;;
20391;SDS011;10355;53.688;10.078;2022-08-24T02:27:15;3.45;;;1.10;;
20391;SDS011;10355;53.688;10.078;2022-08-24T02:30:00;2.40;;;1.30;;
20391;SDS011;10355;53.688;10.078;2022-08-24T02:32:43;3.45;;;1.20;;
20391;SDS011;10355;53.688;10.078;2022-08-24T02:35:26;2.80;;;1.20;;
20391;SDS011;10355;53.688;10.078;2022-08-24T02:38:09;4.80;;;1.20;;
20391;SDS011;10355;53.688;10.078;2022-08-24T02:40:52;3.05;;;1.20;;
20391;SDS011;10355;53.688;10.078;2022-08-24T02:43:37;1.95;;;1.10;;
20391;SDS011;10355;53.688;10.078;2022-08-24T02:46:22;4.40;;;1.10;;
20391;SDS011;10355;53.688;10.078;2022-08-24T02:49:06;3.55;;;1.08;;
20391;SDS011;10355;53.688;10.078;2022-08-24T02:51:53;2.75;;;1.20;;
20391;SDS011;10355;53.688;10.078;2022-08-24T02:54:36;1.88;;;1.00;;
20391;SDS011;10355;53.688;10.078;2022-08-24T02:57:20;2.00;;;1.10;;
20391;SDS011;10355;53.688;10.078;2022-08-24T03:00:04;4.10;;;1.20;;
20391;SDS011;10355;53.688;10.078;2022-08-24T03:02:54;3.17;;;1.30;;
20391;SDS011;10355;53.688;10.078;2022-08-24T03:05:37;4.05;;;1.20;;
20391;SDS011;10355;53.688;10.078;2022-08-24T03:08:20;4.18;;;1.10;;
20391;SDS011;10355;53.688;10.078;2022-08-24T03:11:05;3.28;;;1.45;;
20391;SDS011;10355;53.688;10.078;2022-08-24T03:13:56;2.38;;;1.20;;
20391;SDS011;10355;53.688;10.078;2022-08-24T03:16:39;4.20;;;1.17;;
20391;SDS011;10355;53.688;10.078;2022-08-24T03:19:24;3.60;;;1.40;;
20391;SDS011;10355;53.688;10.078;2022-08-24T03:22:07;2.22;;;1.10;;
20391;SDS011;10355;53.688;10.078;2022-08-24T03:24:50;1.52;;;0.95;;
20391;SDS011;10355;53.688;10.078;2022-08-24T03:27:33;2.67;;;1.38;;
20391;SDS011;10355;53.688;10.078;2022-08-24T03:30:17;2.80;;;1.20;;
20391;SDS011;10355;53.688;10.078;2022-08-24T03:33:02;3.42;;;1.30;;
20391;SDS011;10355;53.688;10.078;2022-08-24T03:35:47;3.15;;;1.20;;
20391;SDS011;10355;53.688;10.078;2022-08-24T03:38:32;2.53;;;1.40;;
20391;SDS011;10355;53.688;10.078;2022-08-24T03:41:15;1.80;;;1.17;;
20391;SDS011;10355;53.688;10.078;2022-08-24T03:43:58;2.80;;;1.17;;
20391;SDS011;10355;53.688;10.078;2022-08-24T03:46:41;2.75;;;1.40;;
20391;SDS011;10355;53.688;10.078;2022-08-24T03:49:26;3.65;;;1.50;;
20391;SDS011;10355;53.688;10.078;2022-08-24T03:52:10;4.35;;;1.38;;
20391;SDS011;10355;53.688;10.078;2022-08-24T03:54:55;2.40;;;1.30;;
20391;SDS011;10355;53.688;10.078;2022-08-24T03:57:38;2.42;;;1.17;;
20391;SDS011;10355;53.688;10.078;2022-08-24T04:00:21;3.33;;;1.50;;
20391;SDS011;10355;53.688;10.078;2022-08-24T04:03:10;3.25;;;1.30;;
20391;SDS011;10355;53.688;10.078;2022-08-24T04:05:53;2.58;;;1.30;;
20391;SDS011;10355;53.688;10.078;2022-08-24T04:08:38;2.80;;;1.23;;
20391;SDS011;10355;53.688;10.078;2022-08-24T04:11:23;3.53;;;1.33;;
20391;SDS011;10355;53.688;10.078;2022-08-24T04:14:06;4.32;;;1.42;;
20391;SDS011;10355;53.688;10.078;2022-08-24T04:17:16;2.45;;;1.10;;
20391;SDS011;10355;53.688;10.078;2022-08-24T04:20:01;3.85;;;1.48;;
20391;SDS011;10355;53.688;10.078;2022-08-24T04:22:48;3.65;;;1.20;;
20391;SDS011;10355;53.688;10.078;2022-08-24T04:25:40;3.55;;;1.30;;
20391;SDS011;10355;53.688;10.078;2022-08-24T04:28:23;3.47;;;1.45;;
20391;SDS011;10355;53.688;10.078;2022-08-24T04:31:06;2.83;;;1.40;;
20391;SDS011;10355;53.688;10.078;2022-08-24T04:33:55;4.22;;;1.50;;
20391;SDS011;10355;53.688;10.078;2022-08-24T04:36:39;2.55;;;1.35;;
20391;SDS011;10355;53.688;10.078;2022-08-24T04:39:22;2.45;;;1.30;;
20391;SDS011;10355;53.688;10.078;2022-08-24T04:42:12;2.08;;;1.13;;
20391;SDS011;10355;53.688;10.078;2022-08-24T04:44:56;2.15;;;1.30;;
20391;SDS011;10355;53.688;10.078;2022-08-24T04:47:39;3.17;;;1.60;;
20391;SDS011;10355;53.688;10.078;2022-08-24T04:50:23;2.90;;;1.30;;
20391;SDS011;10355;53.688;10.078;2022-08-24T04:53:08;2.53;;;1.40;;
20391;SDS011;10355;53.688;10.078;2022-08-24T04:55:51;4.70;;;1.42;;
20391;SDS011;10355;53.688;10.078;2022-08-24T04:58:35;2.88;;;1.42;;
20391;SDS011;10355;53.688;10.078;2022-08-24T05:01:23;2.88;;;1.60;;
20391;SDS011;10355;53.688;10.078;2022-08-24T05:04:06;3.97;;;1.58;;
20391;SDS011;10355;53.688;10.078;2022-08-24T05:06:49;6.28;;;1.50;;
20391;SDS011;10355;53.688;10.078;2022-08-24T05:09:34;5.10;;;1.73;;
20391;SDS011;10355;53.688;10.078;2022-08-24T05:12:18;3.35;;;1.27;;
20391;SDS011;10355;53.688;10.078;2022-08-24T05:15:14;6.63;;;1.80;;
20391;SDS011;10355;53.688;10.078;2022-08-24T05:17:58;3.33;;;1.70;;
20391;SDS011;10355;53.688;10.078;2022-08-24T05:20:42;5.85;;;1.80;;
20391;SDS011;10355;53.688;10.078;2022-08-24T05:23:26;3.42;;;1.90;;
20391;SDS011;10355;53.688;10.078;2022-08-24T05:26:12;3.10;;;1.42;;
20391;SDS011;10355;53.688;10.078;2022-08-24T05:28:55;3.60;;;1.25;;
20391;SDS011;10355;53.688;10.078;2022-08-24T05:31:43;5.05;;;1.40;;
20391;SDS011;10355;53.688;10.078;2022-08-24T05:34:27;3.58;;;1.55;;
20391;SDS011;10355;53.688;10.078;2022-08-24T05:37:10;2.38;;;1.38;;
20391;SDS011;10355;53.688;10.078;2022-08-24T05:40:19;3.00;;;1.48;;
20391;SDS011;10355;53.688;10.078;2022-08-24T05:43:06;4.00;;;1.55;;
20391;SDS011;10355;53.688;10.078;2022-08-24T05:45:49;4.95;;;1.35;;
20391;SDS011;10355;53.688;10.078;2022-08-24T05:48:33;2.28;;;1.52;;
20391;SDS011;10355;53.688;10.078;2022-08-24T05:51:20;3.40;;;1.45;;
20391;SDS011;10355;53.688;10.078;2022-08-24T05:54:10;3.30;;;1.60;;
20391;SDS011;10355;53.688;10.078;2022-08-24T05:57:08;3.50;;;1.48;;
20391;SDS011;10355;53.688;10.078;2022-08-24T06:00:06;3.88;;;1.35;;
20391;SDS011;10355;53.688;10.078;2022-08-24T06:02:56;3.25;;;1.52;;
20391;SDS011;10355;53.688;10.078;2022-08-24T06:05:41;3.65;;;1.30;;
20391;SDS011;10355;53.688;10.078;2022-08-24T06:08:25;3.75;;;1.73;;
20391;SDS011;10355;53.688;10.078;2022-08-24T06:11:11;5.20;;;1.38;;
20391;SDS011;10355;53.688;10.078;2022-08-24T06:13:55;3.72;;;1.40;;
20391;SDS011;10355;53.688;10.078;2022-08-24T06:16:43;4.93;;;1.77;;
20391;SDS011;10355;53.688;10.078;2022-08-24T06:19:27;4.00;;;1.63;;
20391;SDS011;10355;53.688;10.078;2022-08-24T06:22:12;5.57;;;1.60;;
20391;SDS011;10355;53.688;10.078;2022-08-24T06:24:55;6.07;;;1.60;;
20391;SDS011;10355;53.688;10.078;2022-08-24T06:27:56;4.18;;;1.50;;
20391;SDS011;10355;53.688;10.078;2022-08-24T06:30:40;2.47;;;1.48;;
20391;SDS011;10355;53.688;10.078;2022-08-24T06:33:31;2.70;;;1.48;;
20391;SDS011;10355;53.688;10.078;2022-08-24T06:36:15;2.95;;;1.50;;
20391;SDS011;10355;53.688;10.078;2022-08-24T06:39:04;2.85;;;1.50;;
20391;SDS011;10355;53.688;10.078;2022-08-24T06:41:53;1.85;;;1.20;;
20391;SDS011;10355;53.688;10.078;2022-08-24T06:44:43;3.40;;;1.40;;
20391;SDS011;10355;53.688;10.078;2022-08-24T06:47:34;3.22;;;1.27;;
20391;SDS011;10355;53.688;10.078;2022-08-24T06:50:17;5.13;;;1.20;;
20391;SDS011;10355;53.688;10.078;2022-08-24T06:53:04;6.03;;;1.60;;
20391;SDS011;10355;53.688;10.078;2022-08-24T06:55:50;5.07;;;1.50;;
20391;SDS011;10355;53.688;10.078;2022-08-24T06:58:34;4.72;;;1.40;;
20391;SDS011;10355;53.688;10.078;2022-08-24T07:01:21;3.97;;;1.40;;
20391;SDS011;10355;53.688;10.078;2022-08-24T07:04:05;4.57;;;1.42;;
20391;SDS011;10355;53.688;10.078;2022-08-24T07:07:14;2.70;;;1.40;;
20391;SDS011;10355;53.688;10.078;2022-08-24T07:09:58;4.20;;;1.58;;
20391;SDS011;10355;53.688;10.078;2022-08-24T07:12:42;3.35;;;1.38;;
20391;SDS011;10355;53.688;10.078;2022-08-24T07:15:30;4.18;;;1.52;;
20391;SDS011;10355;53.688;10.078;2022-08-24T07:18:26;3.75;;;1.40;;
20391;SDS011;10355;53.688;10.078;2022-08-24T07:21:12;2.55;;;1.20;;
20391;SDS011;10355;53.688;10.078;2022-08-24T07:24:00;3.03;;;1.50;;
20391;SDS011;10355;53.688;10.078;2022-08-24T07:26:48;3.80;;;1.30;;
20391;SDS011;10355;53.688;10.078;2022-08-24T07:29:32;3.78;;;1.25;;
20391;SDS011;10355;53.688;10.078;2022-08-24T07:32:36;5.65;;;1.50;;
20391;SDS011;10355;53.688;10.078;2022-08-24T07:35:19;4.30;;;1.35;;
20391;SDS011;10355;53.688;10.078;2022-08-24T07:38:03;4.13;;;1.42;;
20391;SDS011;10355;53.688;10.078;2022-08-24T07:40:46;4.93;;;1.58;;
20391;SDS011;10355;53.688;10.078;2022-08-24T07:43:54;2.78;;;1.02;;
20391;SDS011;10355;53.688;10.078;2022-08-24T07:46:39;0.20;;;0.20;;
20391;SDS011;10355;53.688;10.078;2022-08-24T07:49:23;1.02;;;0.47;;
20391;SDS011;10355;53.688;10.078;2022-08-24T07:52:19;0.75;;;0.20;;
20391;SDS011;10355;53.688;10.078;2022-08-24T07:55:02;0.10;;;0.10;;
20391;SDS011;10355;53.688;10.078;2022-08-24T07:57:46;2.22;;;1.13;;
20391;SDS011;10355;53.688;10.078;2022-08-24T08:00:29;4.20;;;1.20;;
20391;SDS011;10355;53.688;10.078;2022-08-24T08:03:17;1.95;;;1.00;;
20391;SDS011;10355;53.688;10.078;2022-08-24T08:06:01;2.10;;;1.08;;
20391;SDS011;10355;53.688;10.078;2022-08-24T08:08:45;1.10;;;0.50;;
20391;SDS011;10355;53.688;10.078;2022-08-24T08:11:28;0.30;;;0.30;;
20391;SDS011;10355;53.688;10.078;2022-08-24T08:14:11;0.30;;;0.20;;
20391;SDS011;10355;53.688;10.078;2022-08-24T08:16:55;0.15;;;0.10;;
20391;SDS011;10355;53.688;10.078;2022-08-24T08:19:39;0.10;;;0.10;;
20391;SDS011;10355;53.688;10.078;2022-08-24T08:22:23;0.10;;;0.10;;
20391;SDS011;10355;53.688;10.078;2022-08-24T08:25:56;0.35;;;0.20;;
20391;SDS011;10355;53.688;10.078;2022-08-24T08:28:53;0.10;;;0.10;;
20391;SDS011;10355;53.688;10.078;2022-08-24T08:31:37;0.28;;;0.20;;
20391;SDS011;10355;53.688;10.078;2022-08-24T08:34:21;0.10;;;0.10;;
20391;SDS011;10355;53.688;10.078;2022-08-24T08:37:05;0.30;;;0.20;;
20391;SDS011;10355;53.688;10.078;2022-08-24T08:39:49;0.10;;;0.10;;
20391;SDS011;10355;53.688;10.078;2022-08-24T08:42:43;0.10;;;0.10;;
20391;SDS011;10355;53.688;10.078;2022-08-24T08:45:34;0.10;;;0.10;;
20391;SDS011;10355;53.688;10.078;2022-08-24T08:48:52;0.10;;;0.10;;
20391;SDS011;10355;53.688;10.078;2022-08-24T08:51:50;0.10;;;0.10;;
20391;SDS011;10355;53.688;10.078;2022-08-24T08:54:43;0.20;;;0.20;;
20391;SDS011;10355;53.688;10.078;2022-08-24T08:57:40;0.10;;;0.10;;
20391;SDS011;10355;53.688;10.078;2022-08-24T09:00:26;0.10;;;0.10;;
20391;SDS011;10355;53.688;10.078;2022-08-24T09:03:17;0.20;;;0.13;;
20391;SDS011;10355;53.688;10.078;2022-08-24T09:06:33;0.20;;;0.20;;
20391;SDS011;10355;53.688;10.078;2022-08-24T09:09:25;0.10;;;0.10;;
20391;SDS011;10355;53.688;10.078;2022-08-24T09:12:19;0.10;;;0.10;;
20391;SDS011;10355;53.688;10.078;2022-08-24T09:15:13;0.10;;;0.10;;
20391;SDS011;10355;53.688;10.078;2022-08-24T09:18:04;0.10;;;0.10;;
20391;SDS011;10355;53.688;10.078;2022-08-24T09:21:11;0.10;;;0.10;;
20391;SDS011;10355;53.688;10.078;2022-08-24T09:23:58;0.10;;;0.10;;
20391;SDS011;10355;53.688;10.078;2022-08-24T09:26:47;0.22;;;0.22;;
20391;SDS011;10355;53.688;10.078;2022-08-24T09:29:40;0.22;;;0.10;;
20391;SDS011;10355;53.688;10.078;2022-08-24T09:32:35;0.10;;;0.10;;
20391;SDS011;10355;53.688;10.078;2022-08-24T09:35:22;0.20;;;0.20;;
20391;SDS011;10355;53.688;10.078;2022-08-24T09:38:13;0.10;;;0.10;;
20391;SDS011;10355;53.688;10.078;2022-08-24T09:41:05;0.10;;;0.10;;
20391;SDS011;10355;53.688;10.078;2022-08-24T09:44:06;0.10;;;0.10;;
20391;SDS011;10355;53.688;10.078;2022-08-24T09:50:10;0.10;;;0.10;;
20391;SDS011;10355;53.688;10.078;2022-08-24T09:53:10;0.40;;;0.10;;
20391;SDS011;10355;53.688;10.078;2022-08-24T09:56:00;0.10;;;0.10;;
20391;SDS011;10355;53.688;10.078;2022-08-24T09:58:51;0.17;;;0.17;;
20391;SDS011;10355;53.688;10.078;2022-08-24T10:01:38;0.10;;;0.10;;
20391;SDS011;10355;53.688;10.078;2022-08-24T10:04:27;0.10;;;0.10;;
20391;SDS011;10355;53.688;10.078;2022-08-24T10:07:15;0.10;;;0.10;;
20391;SDS011;10355;53.688;10.078;2022-08-24T10:10:15;0.10;;;0.10;;
20391;SDS011;10355;53.688;10.078;2022-08-24T10:13:06;0.10;;;0.10;;
20391;SDS011;10355;53.688;10.078;2022-08-24T10:15:59;0.10;;;0.10;;
20391;SDS011;10355;53.688;10.078;2022-08-24T10:18:52;0.10;;;0.10;;
20391;SDS011;10355;53.688;10.078;2022-08-24T10:21:41;0.10;;;0.10;;
20391;SDS011;10355;53.688;10.078;2022-08-24T10:24:33;0.10;;;0.10;;
20391;SDS011;10355;53.688;10.078;2022-08-24T10:27:20;0.10;;;0.10;;
20391;SDS011;10355;53.688;10.078;2022-08-24T10:30:13;0.10;;;0.10;;
20391;SDS011;10355;53.688;10.078;2022-08-24T10:33:12;0.15;;;0.10;;
20391;SDS011;10355;53.688;10.078;2022-08-24T10:39:08;0.10;;;0.10;;
20391;SDS011;10355;53.688;10.078;2022-08-24T10:42:34;0.10;;;0.10;;
20391;SDS011;10355;53.688;10.078;2022-08-24T10:48:48;0.10;;;0.10;;
20391;SDS011;10355;53.688;10.078;2022-08-24T10:51:38;0.10;;;0.10;;
20391;SDS011;10355;53.688;10.078;2022-08-24T10:54:24;0.10;;;0.10;;
20391;SDS011;10355;53.688;10.078;2022-08-24T10:57:08;0.10;;;0.10;;
20391;SDS011;10355;53.688;10.078;2022-08-24T10:59:57;0.10;;;0.10;;
20391;SDS011;10355;53.688;10.078;2022-08-24T11:02:45;0.10;;;0.10;;
20391;SDS011;10355;53.688;10.078;2022-08-24T11:05:29;0.10;;;0.10;;
20391;SDS011;10355;53.688;10.078;2022-08-24T11:08:16;0.10;;;0.10;;
20391;SDS011;10355;53.688;10.078;2022-08-24T11:11:04;0.10;;;0.10;;
20391;SDS011;10355;53.688;10.078;2022-08-24T11:13:56;0.03;;;0.03;;
20391;SDS011;10355;53.688;10.078;2022-08-24T11:16:42;0.10;;;0.10;;
20391;SDS011;10355;53.688;10.078;2022-08-24T11:19:30;0.10;;;0.10;;
20391;SDS011;10355;53.688;10.078;2022-08-24T11:25:21;0.10;;;0.10;;
20391;SDS011;10355;53.688;10.078;2022-08-24T11:28:10;0.10;;;0.10;;
20391;SDS011;10355;53.688;10.078;2022-08-24T11:30:58;0.10;;;0.10;;
20391;SDS011;10355;53.688;10.078;2022-08-24T11:33:45;0.10;;;0.10;;
20391;SDS011;10355;53.688;10.078;2022-08-24T11:36:32;0.10;;;0.10;;
20391;SDS011;10355;53.688;10.078;2022-08-24T11:39:16;0.10;;;0.10;;
20391;SDS011;10355;53.688;10.078;2022-08-24T11:42:05;0.10;;;0.10;;
20391;SDS011;10355;53.688;10.078;2022-08-24T11:44:53;0.10;;;0.10;;
20391;SDS011;10355;53.688;10.078;2022-08-24T11:47:40;0.10;;;0.10;;
20391;SDS011;10355;53.688;10.078;2022-08-24T11:50:32;0.10;;;0.10;;
20391;SDS011;10355;53.688;10.078;2022-08-24T11:53:20;0.10;;;0.10;;
20391;SDS011;10355;53.688;10.078;2022-08-24T11:56:07;0.10;;;0.10;;
20391;SDS011;10355;53.688;10.078;2022-08-24T11:58:59;0.08;;;0.08;;
20391;SDS011;10355;53.688;10.078;2022-08-24T12:01:44;0.10;;;0.10;;
20391;SDS011;10355;53.688;10.078;2022-08-24T12:04:33;0.70;;;0.17;;
20391;SDS011;10355;53.688;10.078;2022-08-24T12:07:21;0.10;;;0.10;;
20391;SDS011;10355;53.688;10.078;2022-08-24T12:10:13;0.10;;;0.10;;
20391;SDS011;10355;53.688;10.078;2022-08-24T12:13:00;0.10;;;0.10;;
20391;SDS011;10355;53.688;10.078;2022-08-24T12:15:45;0.10;;;0.10;;
20391;SDS011;10355;53.688;10.078;2022-08-24T12:18:35;0.08;;;0.08;;
20391;SDS011;10355;53.688;10.078;2022-08-24T12:21:24;0.10;;;0.10;;
20391;SDS011;10355;53.688;10.078;2022-08-24T12:24:10;0.10;;;0.10;;
20391;SDS011;10355;53.688;10.078;2022-08-24T12:26:55;0.30;;;0.20;;
20391;SDS011;10355;53.688;10.078;2022-08-24T12:29:41;0.10;;;0.10;;
20391;SDS011;10355;53.688;10.078;2022-08-24T12:32:27;0.10;;;0.10;;
20391;SDS011;10355;53.688;10.078;2022-08-24T12:35:13;0.20;;;0.10;;
20391;SDS011;10355;53.688;10.078;2022-08-24T12:37:58;0.10;;;0.10;;
20391;SDS011;10355;53.688;10.078;2022-08-24T12:40:46;0.10;;;0.10;;
20391;SDS011;10355;53.688;10.078;2022-08-24T12:43:34;0.10;;;0.10;;
20391;SDS011;10355;53.688;10.078;2022-08-24T12:46:19;0.10;;;0.10;;
20391;SDS011;10355;53.688;10.078;2022-08-24T12:49:04;0.10;;;0.10;;
20391;SDS011;10355;53.688;10.078;2022-08-24T12:51:53;0.10;;;0.10;;
20391;SDS011;10355;53.688;10.078;2022-08-24T12:54:45;0.10;;;0.10;;
20391;SDS011;10355;53.688;10.078;2022-08-24T12:57:36;0.10;;;0.10;;
20391;SDS011;10355;53.688;10.078;2022-08-24T13:00:34;0.10;;;0.10;;
20391;SDS011;10355;53.688;10.078;2022-08-24T13:03:23;0.10;;;0.10;;
20391;SDS011;10355;53.688;10.078;2022-08-24T13:06:08;0.10;;;0.10;;
20391;SDS011;10355;53.688;10.078;2022-08-24T13:09:03;0.10;;;0.10;;
20391;SDS011;10355;53.688;10.078;2022-08-24T13:11:46;0.10;;;0.10;;
20391;SDS011;10355;53.688;10.078;2022-08-24T13:14:30;0.10;;;0.10;;
20391;SDS011;10355;53.688;10.078;2022-08-24T13:17:14;0.10;;;0.10;;
20391;SDS011;10355;53.688;10.078;2022-08-24T13:20:14;0.10;;;0.10;;
20391;SDS011;10355;53.688;10.078;2022-08-24T13:23:05;0.10;;;0.10;;
20391;SDS011;10355;53.688;10.078;2022-08-24T13:25:56;0.15;;;0.10;;
20391;SDS011;10355;53.688;10.078;2022-08-24T13:28:41;0.10;;;0.10;;
20391;SDS011;10355;53.688;10.078;2022-08-24T13:31:27;0.10;;;0.10;;
20391;SDS011;10355;53.688;10.078;2022-08-24T13:37:15;0.10;;;0.10;;
20391;SDS011;10355;53.688;10.078;2022-08-24T13:40:00;0.10;;;0.10;;
20391;SDS011;10355;53.688;10.078;2022-08-24T13:42:57;0.10;;;0.10;;
20391;SDS011;10355;53.688;10.078;2022-08-24T13:45:45;0.10;;;0.10;;
20391;SDS011;10355;53.688;10.078;2022-08-24T13:48:37;0.10;;;0.10;;
20391;SDS011;10355;53.688;10.078;2022-08-24T13:51:28;0.10;;;0.10;;
20391;SDS011;10355;53.688;10.078;2022-08-24T13:54:18;0.10;;;0.10;;
20391;SDS011;10355;53.688;10.078;2022-08-24T13:57:07;0.10;;;0.10;;
20391;SDS011;10355;53.688;10.078;2022-08-24T14:00:00;0.03;;;0.03;;
20391;SDS011;10355;53.688;10.078;2022-08-24T14:02:56;0.10;;;0.10;;
20391;SDS011;10355;53.688;10.078;2022-08-24T14:05:46;0.10;;;0.10;;
20391;SDS011;10355;53.688;10.078;2022-08-24T14:08:41;0.10;;;0.10;;
20391;SDS011;10355;53.688;10.078;2022-08-24T14:11:33;0.10;;;0.10;;
20391;SDS011;10355;53.688;10.078;2022-08-24T14:14:20;0.08;;;0.08;;
20391;SDS011;10355;53.688;10.078;2022-08-24T14:17:06;0.05;;;0.05;;
20391;SDS011;10355;53.688;10.078;2022-08-24T14:20:21;0.30;;;0.10;;
20391;SDS011;10355;53.688;10.078;2022-08-24T14:23:08;0.10;;;0.10;;
20391;SDS011;10355;53.688;10.078;2022-08-24T14:28:58;0.10;;;0.10;;
20391;SDS011;10355;53.688;10.078;2022-08-24T14:35:24;0.10;;;0.10;;
20391;SDS011;10355;53.688;10.078;2022-08-24T14:41:16;0.10;;;0.10;;
20391;SDS011;10355;53.688;10.078;2022-08-24T14:44:03;0.10;;;0.10;;
20391;SDS011;10355;53.688;10.078;2022-08-24T14:46:49;0.30;;;0.30;;
20391;SDS011;10355;53.688;10.078;2022-08-24T14:49:34;0.10;;;0.10;;
20391;SDS011;10355;53.688;10.078;2022-08-24T14:52:25;0.10;;;0.10;;
20391;SDS011;10355;53.688;10.078;2022-08-24T14:55:19;0.10;;;0.10;;
20391;SDS011;10355;53.688;10.078;2022-08-24T14:58:07;0.10;;;0.10;;
20391;SDS011;10355;53.688;10.078;2022-08-24T15:01:01;0.10;;;0.10;;
20391;SDS011;10355;53.688;10.078;2022-08-24T15:10:13;0.10;;;0.10;;
20391;SDS011;10355;53.688;10.078;2022-08-24T15:12:57;0.10;;;0.10;;
20391;SDS011;10355;53.688;10.078;2022-08-24T15:15:47;0.03;;;0.03;;
20391;SDS011;10355;53.688;10.078;2022-08-24T15:18:34;0.10;;;0.10;;
20391;SDS011;10355;53.688;10.078;2022-08-24T15:21:30;0.10;;;0.10;;
20391;SDS011;10355;53.688;10.078;2022-08-24T15:24:18;0.10;;;0.10;;
20391;SDS011;10355;53.688;10.078;2022-08-24T15:27:11;0.10;;;0.10;;
20391;SDS011;10355;53.688;10.078;2022-08-24T15:29:57;0.10;;;0.10;;
20391;SDS011;10355;53.688;10.078;2022-08-24T15:32:41;0.13;;;0.10;;
20391;SDS011;10355;53.688;10.078;2022-08-24T15:35:25;0.10;;;0.10;;
20391;SDS011;10355;53.688;10.078;2022-08-24T15:38:15;0.10;;;0.10;;
20391;SDS011;10355;53.688;10.078;2022-08-24T15:41:01;0.10;;;0.10;;
20391;SDS011;10355;53.688;10.078;2022-08-24T15:43:47;0.10;;;0.10;;
20391;SDS011;10355;53.688;10.078;2022-08-24T15:46:31;0.10;;;0.10;;
20391;SDS011;10355;53.688;10.078;2022-08-24T15:49:16;0.10;;;0.10;;
20391;SDS011;10355;53.688;10.078;2022-08-24T15:52:04;0.10;;;0.10;;
20391;SDS011;10355;53.688;10.078;2022-08-24T15:54:55;0.10;;;0.10;;
20391;SDS011;10355;53.688;10.078;2022-08-24T15:57:38;0.20;;;0.20;;
20391;SDS011;10355;53.688;10.078;2022-08-24T16:00:33;0.10;;;0.10;;
20391;SDS011;10355;53.688;10.078;2022-08-24T16:03:44;0.10;;;0.10;;
20391;SDS011;10355;53.688;10.078;2022-08-24T16:06:34;0.10;;;0.10;;
20391;SDS011;10355;53.688;10.078;2022-08-24T16:09:30;0.40;;;0.20;;
20391;SDS011;10355;53.688;10.078;2022-08-24T16:12:14;0.22;;;0.10;;
20391;SDS011;10355;53.688;10.078;2022-08-24T16:15:13;0.13;;;0.10;;
20391;SDS011;10355;53.688;10.078;2022-08-24T16:17:58;0.10;;;0.10;;
20391;SDS011;10355;53.688;10.078;2022-08-24T16:20:41;0.10;;;0.10;;
20391;SDS011;10355;53.688;10.078;2022-08-24T16:23:27;0.10;;;0.10;;
20391;SDS011;10355;53.688;10.078;2022-08-24T16:26:19;0.10;;;0.10;;
20391;SDS011;10355;53.688;10.078;2022-08-24T16:29:02;0.10;;;0.10;;
20391;SDS011;10355;53.688;10.078;2022-08-24T16:31:47;0.10;;;0.10;;
20391;SDS011;10355;53.688;10.078;2022-08-24T16:34:31;0.10;;;0.10;;
20391;SDS011;10355;53.688;10.078;2022-08-24T16:37:15;0.10;;;0.10;;
20391;SDS011;10355;53.688;10.078;2022-08-24T16:39:59;0.10;;;0.10;;
20391;SDS011;10355;53.688;10.078;2022-08-24T16:42:41;0.10;;;0.10;;
20391;SDS011;10355;53.688;10.078;2022-08-24T16:45:24;0.10;;;0.10;;
20391;SDS011;10355;53.688;10.078;2022-08-24T16:48:07;0.10;;;0.10;;
20391;SDS011;10355;53.688;10.078;2022-08-24T16:50:52;0.20;;;0.10;;
20391;SDS011;10355;53.688;10.078;2022-08-24T16:53:36;0.10;;;0.10;;
20391;SDS011;10355;53.688;10.078;2022-08-24T16:56:19;0.10;;;0.10;;
20391;SDS011;10355;53.688;10.078;2022-08-24T16:59:03;0.10;;;0.10;;
20391;SDS011;10355;53.688;10.078;2022-08-24T17:01:47;0.10;;;0.10;;
20391;SDS011;10355;53.688;10.078;2022-08-24T17:04:30;0.10;;;0.10;;
20391;SDS011;10355;53.688;10.078;2022-08-24T17:07:15;0.10;;;0.10;;